sensor_id;sensor_type;location;lat;lon;timestamp;pressure;altitude;pressure_sealevel;temperature;humidity
59194;BME280;44967;48.598;15.650;2023-03-26T00:01:14;97585.25;;;8.29;61.91
59194;BME280;44967;48.598;15.650;2023-03-26T00:03:41;97586.91;;;8.32;61.94
59194;BME280;44967;48.598;15.650;2023-03-26T00:06:13;97580.78;;;8.31;62.28
59194;BME280;44967;48.598;15.650;2023-03-26T00:08:42;97587.91;;;8.26;61.86
59194;BME280;44967;48.598;15.650;2023-03-26T00:11:11;97591.38;;;8.28;62.54
59194;BME280;44967;48.598;15.650;2023-03-26T00:13:37;97598.41;;;8.29;62.01
59194;BME280;44967;48.598;15.650;2023-03-26T00:16:04;97596.03;;;8.20;62.54
59194;BME280;44967;48.598;15.650;2023-03-26T00:18:30;97588.31;;;8.14;62.58
59194;BME280;44967;48.598;15.650;2023-03-26T00:20:57;97585.34;;;8.25;62.55
59194;BME280;44967;48.598;15.650;2023-03-26T00:23:23;97588.75;;;8.28;62.92
59194;BME280;44967;48.598;15.650;2023-03-26T00:25:50;97582.44;;;8.34;63.03
59194;BME280;44967;48.598;15.650;2023-03-26T00:28:16;97589.75;;;8.24;63.41
59194;BME280;44967;48.598;15.650;2023-03-26T00:30:49;97583.41;;;8.31;63.07
59194;BME280;44967;48.598;15.650;2023-03-26T00:33:21;97579.53;;;8.41;62.79
59194;BME280;44967;48.598;15.650;2023-03-26T00:35:51;97584.03;;;8.39;62.61
59194;BME280;44967;48.598;15.650;2023-03-26T00:38:19;97578.88;;;8.36;62.63
59194;BME280;44967;48.598;15.650;2023-03-26T00:40:47;97580.78;;;8.31;63.10
59194;BME280;44967;48.598;15.650;2023-03-26T00:43:16;97570.13;;;8.34;62.75
59194;BME280;44967;48.598;15.650;2023-03-26T00:45:50;97562.75;;;8.45;62.26
59194;BME280;44967;48.598;15.650;2023-03-26T00:48:17;97573.25;;;8.45;62.91
59194;BME280;44967;48.598;15.650;2023-03-26T00:50:44;97559.31;;;8.43;63.47
59194;BME280;44967;48.598;15.650;2023-03-26T00:53:12;97562.59;;;8.50;62.14
59194;BME280;44967;48.598;15.650;2023-03-26T00:55:43;97568.81;;;8.47;62.76
59194;BME280;44967;48.598;15.650;2023-03-26T00:58:10;97565.97;;;8.53;62.75
59194;BME280;44967;48.598;15.650;2023-03-26T01:00:42;97562.25;;;8.61;62.09
59194;BME280;44967;48.598;15.650;2023-03-26T01:03:13;97585.97;;;8.59;61.88
59194;BME280;44967;48.598;15.650;2023-03-26T01:08:12;97577.81;;;8.67;62.18
59194;BME280;44967;48.598;15.650;2023-03-26T01:10:41;97577.03;;;8.65;62.57
59194;BME280;44967;48.598;15.650;2023-03-26T01:13:08;97576.69;;;8.74;61.79
59194;BME280;44967;48.598;15.650;2023-03-26T01:15:35;97563.44;;;8.77;62.17
59194;BME280;44967;48.598;15.650;2023-03-26T01:18:04;97563.47;;;8.75;62.19
59194;BME280;44967;48.598;15.650;2023-03-26T01:20:39;97553.31;;;8.65;62.37
59194;BME280;44967;48.598;15.650;2023-03-26T01:23:12;97552.56;;;8.61;63.20
59194;BME280;44967;48.598;15.650;2023-03-26T01:25:44;97550.56;;;8.68;62.68
59194;BME280;44967;48.598;15.650;2023-03-26T01:28:12;97554.16;;;8.65;61.89
59194;BME280;44967;48.598;15.650;2023-03-26T01:31:08;97543.72;;;8.62;62.48
59194;BME280;44967;48.598;15.650;2023-03-26T01:33:45;97555.34;;;8.57;62.42
59194;BME280;44967;48.598;15.650;2023-03-26T01:36:24;97546.53;;;8.58;62.67
59194;BME280;44967;48.598;15.650;2023-03-26T01:42:19;97550.59;;;8.41;62.88
59194;BME280;44967;48.598;15.650;2023-03-26T01:44:43;97551.44;;;8.42;63.22
59194;BME280;44967;48.598;15.650;2023-03-26T01:47:11;97549.00;;;8.37;63.69
59194;BME280;44967;48.598;15.650;2023-03-26T01:49:37;97544.69;;;8.35;63.33
59194;BME280;44967;48.598;15.650;2023-03-26T01:52:10;97543.25;;;8.25;64.21
59194;BME280;44967;48.598;15.650;2023-03-26T01:54:37;97541.38;;;8.28;63.42
59194;BME280;44967;48.598;15.650;2023-03-26T02:00:06;97536.06;;;8.30;63.73
59194;BME280;44967;48.598;15.650;2023-03-26T02:02:48;97533.00;;;8.16;64.21
59194;BME280;44967;48.598;15.650;2023-03-26T02:05:41;97538.28;;;8.16;64.29
59194;BME280;44967;48.598;15.650;2023-03-26T02:08:20;97532.25;;;8.12;64.28
59194;BME280;44967;48.598;15.650;2023-03-26T02:10:51;97528.66;;;8.15;64.67
59194;BME280;44967;48.598;15.650;2023-03-26T02:13:19;97534.28;;;8.04;64.93
59194;BME280;44967;48.598;15.650;2023-03-26T02:16:02;97526.50;;;8.01;64.24
59194;BME280;44967;48.598;15.650;2023-03-26T02:18:28;97521.78;;;8.11;64.40
59194;BME280;44967;48.598;15.650;2023-03-26T02:21:20;97522.88;;;8.03;64.87
59194;BME280;44967;48.598;15.650;2023-03-26T02:23:50;97520.50;;;7.96;65.27
59194;BME280;44967;48.598;15.650;2023-03-26T02:26:23;97517.09;;;7.94;64.97
59194;BME280;44967;48.598;15.650;2023-03-26T02:28:49;97520.50;;;7.96;65.53
59194;BME280;44967;48.598;15.650;2023-03-26T02:31:15;97516.00;;;7.99;64.85
59194;BME280;44967;48.598;15.650;2023-03-26T02:33:41;97510.03;;;7.94;65.28
59194;BME280;44967;48.598;15.650;2023-03-26T02:36:09;97518.38;;;8.07;64.46
59194;BME280;44967;48.598;15.650;2023-03-26T02:38:38;97500.78;;;8.09;64.61
59194;BME280;44967;48.598;15.650;2023-03-26T02:41:04;97509.34;;;8.16;63.79
59194;BME280;44967;48.598;15.650;2023-03-26T02:43:30;97509.34;;;8.16;64.19
59194;BME280;44967;48.598;15.650;2023-03-26T02:45:56;97499.44;;;8.22;63.45
59194;BME280;44967;48.598;15.650;2023-03-26T02:48:22;97501.13;;;8.25;63.36
59194;BME280;44967;48.598;15.650;2023-03-26T02:50:48;97501.81;;;8.31;62.96
59194;BME280;44967;48.598;15.650;2023-03-26T02:53:15;97490.97;;;8.40;62.16
59194;BME280;44967;48.598;15.650;2023-03-26T02:55:41;97504.81;;;8.45;62.79
59194;BME280;44967;48.598;15.650;2023-03-26T02:58:06;97503.31;;;8.38;63.46
59194;BME280;44967;48.598;15.650;2023-03-26T03:00:33;97493.25;;;8.49;62.29
59194;BME280;44967;48.598;15.650;2023-03-26T03:02:59;97492.78;;;8.38;63.46
59194;BME280;44967;48.598;15.650;2023-03-26T03:05:29;97482.72;;;8.49;62.59
59194;BME280;44967;48.598;15.650;2023-03-26T03:07:58;97486.06;;;8.55;62.13
59194;BME280;44967;48.598;15.650;2023-03-26T03:10:27;97481.41;;;8.63;61.95
59194;BME280;44967;48.598;15.650;2023-03-26T03:12:53;97479.03;;;8.55;62.56
59194;BME280;44967;48.598;15.650;2023-03-26T03:15:20;97482.56;;;8.54;62.56
59194;BME280;44967;48.598;15.650;2023-03-26T03:17:46;97476.19;;;8.61;61.83
59194;BME280;44967;48.598;15.650;2023-03-26T03:20:12;97474.69;;;8.54;61.73
59194;BME280;44967;48.598;15.650;2023-03-26T03:22:38;97474.03;;;8.47;62.42
59194;BME280;44967;48.598;15.650;2023-03-26T03:25:04;97487.41;;;8.41;62.98
59194;BME280;44967;48.598;15.650;2023-03-26T03:27:33;97481.34;;;8.39;62.47
59194;BME280;44967;48.598;15.650;2023-03-26T03:29:59;97483.06;;;8.40;62.99
59194;BME280;44967;48.598;15.650;2023-03-26T03:32:25;97477.66;;;8.45;62.25
59194;BME280;44967;48.598;15.650;2023-03-26T03:34:51;97480.56;;;8.37;62.47
59194;BME280;44967;48.598;15.650;2023-03-26T03:37:18;97470.03;;;8.37;63.79
59194;BME280;44967;48.598;15.650;2023-03-26T03:39:44;97490.75;;;8.46;63.13
59194;BME280;44967;48.598;15.650;2023-03-26T03:42:10;97490.25;;;8.35;62.96
59194;BME280;44967;48.598;15.650;2023-03-26T03:44:36;97481.66;;;8.30;63.72
59194;BME280;44967;48.598;15.650;2023-03-26T03:47:02;97485.34;;;8.25;63.40
59194;BME280;44967;48.598;15.650;2023-03-26T03:49:27;97483.66;;;8.22;63.60
59194;BME280;44967;48.598;15.650;2023-03-26T03:51:53;97487.00;;;8.27;63.27
59194;BME280;44967;48.598;15.650;2023-03-26T03:54:19;97487.75;;;8.32;63.29
59194;BME280;44967;48.598;15.650;2023-03-26T03:56:45;97500.94;;;8.31;63.42
59194;BME280;44967;48.598;15.650;2023-03-26T03:59:12;97487.63;;;8.35;63.52
59194;BME280;44967;48.598;15.650;2023-03-26T04:01:37;97475.28;;;8.37;63.99
59194;BME280;44967;48.598;15.650;2023-03-26T04:04:04;97484.84;;;8.40;63.77
59194;BME280;44967;48.598;15.650;2023-03-26T04:06:29;97489.25;;;8.39;63.73
59194;BME280;44967;48.598;15.650;2023-03-26T04:08:55;97472.47;;;8.42;63.52
59194;BME280;44967;48.598;15.650;2023-03-26T04:11:21;97474.84;;;8.49;63.21
59194;BME280;44967;48.598;15.650;2023-03-26T04:13:47;97476.88;;;8.41;63.18
59194;BME280;44967;48.598;15.650;2023-03-26T04:16:13;97478.13;;;8.31;63.47
59194;BME280;44967;48.598;15.650;2023-03-26T04:18:39;97471.06;;;8.33;62.78
59194;BME280;44967;48.598;15.650;2023-03-26T04:21:06;97476.09;;;8.39;63.20
59194;BME280;44967;48.598;15.650;2023-03-26T04:23:32;97457.19;;;8.27;63.39
59194;BME280;44967;48.598;15.650;2023-03-26T04:26:04;97471.75;;;8.12;64.25
59194;BME280;44967;48.598;15.650;2023-03-26T04:29:04;97463.19;;;8.05;64.03
59194;BME280;44967;48.598;15.650;2023-03-26T04:31:31;97467.75;;;8.00;64.25
59194;BME280;44967;48.598;15.650;2023-03-26T04:34:13;97472.88;;;8.05;64.33
59194;BME280;44967;48.598;15.650;2023-03-26T04:36:43;97471.13;;;8.04;64.28
59194;BME280;44967;48.598;15.650;2023-03-26T04:39:11;97476.19;;;8.10;64.30
59194;BME280;44967;48.598;15.650;2023-03-26T04:41:37;97479.13;;;8.01;64.69
59194;BME280;44967;48.598;15.650;2023-03-26T04:44:03;97475.78;;;7.96;64.24
59194;BME280;44967;48.598;15.650;2023-03-26T04:46:30;97480.16;;;7.97;64.69
59194;BME280;44967;48.598;15.650;2023-03-26T04:48:59;97475.00;;;7.94;64.40
59194;BME280;44967;48.598;15.650;2023-03-26T04:51:32;97474.13;;;7.93;64.60
59194;BME280;44967;48.598;15.650;2023-03-26T04:54:03;97468.94;;;7.90;64.22
59194;BME280;44967;48.598;15.650;2023-03-26T04:59:18;97470.75;;;7.90;64.67
59194;BME280;44967;48.598;15.650;2023-03-26T05:01:44;97477.66;;;7.92;64.92
59194;BME280;44967;48.598;15.650;2023-03-26T05:04:12;97477.06;;;7.84;64.98
59194;BME280;44967;48.598;15.650;2023-03-26T05:06:40;97478.22;;;7.76;65.43
59194;BME280;44967;48.598;15.650;2023-03-26T05:09:06;97484.09;;;7.84;64.15
59194;BME280;44967;48.598;15.650;2023-03-26T05:11:33;97476.00;;;7.90;64.81
59194;BME280;44967;48.598;15.650;2023-03-26T05:13:58;97484.56;;;7.96;64.66
59194;BME280;44967;48.598;15.650;2023-03-26T05:16:24;97487.72;;;7.80;64.56
59194;BME280;44967;48.598;15.650;2023-03-26T05:18:50;97476.03;;;7.88;64.51
59194;BME280;44967;48.598;15.650;2023-03-26T05:21:16;97484.94;;;7.84;64.58
59194;BME280;44967;48.598;15.650;2023-03-26T05:23:42;97485.59;;;7.91;63.80
59194;BME280;44967;48.598;15.650;2023-03-26T05:26:09;97478.88;;;7.82;64.75
59194;BME280;44967;48.598;15.650;2023-03-26T05:28:35;97479.41;;;7.93;64.04
59194;BME280;44967;48.598;15.650;2023-03-26T05:31:01;97480.16;;;7.97;64.52
59194;BME280;44967;48.598;15.650;2023-03-26T05:33:27;97478.63;;;7.90;63.82
59194;BME280;44967;48.598;15.650;2023-03-26T05:36:00;97472.75;;;8.08;63.11
59194;BME280;44967;48.598;15.650;2023-03-26T05:38:28;97484.94;;;8.11;64.07
59194;BME280;44967;48.598;15.650;2023-03-26T05:40:59;97485.81;;;8.11;63.40
59194;BME280;44967;48.598;15.650;2023-03-26T05:43:25;97484.03;;;8.12;63.67
59194;BME280;44967;48.598;15.650;2023-03-26T05:45:51;97479.78;;;8.07;63.58
59194;BME280;44967;48.598;15.650;2023-03-26T05:48:17;97483.13;;;8.13;63.47
59194;BME280;44967;48.598;15.650;2023-03-26T05:50:42;97483.56;;;8.25;63.20
59194;BME280;44967;48.598;15.650;2023-03-26T05:53:09;97478.00;;;8.34;62.54
59194;BME280;44967;48.598;15.650;2023-03-26T05:55:34;97483.97;;;8.39;62.56
59194;BME280;44967;48.598;15.650;2023-03-26T05:58:00;97475.56;;;8.28;63.58
59194;BME280;44967;48.598;15.650;2023-03-26T06:00:27;97470.03;;;8.37;62.63
59194;BME280;44967;48.598;15.650;2023-03-26T06:02:52;97470.03;;;8.37;62.19
59194;BME280;44967;48.598;15.650;2023-03-26T06:05:19;97473.41;;;8.41;62.91
59194;BME280;44967;48.598;15.650;2023-03-26T06:07:45;97465.72;;;8.60;62.13
59194;BME280;44967;48.598;15.650;2023-03-26T06:10:11;97456.78;;;8.64;61.46
59194;BME280;44967;48.598;15.650;2023-03-26T06:12:37;97469.84;;;8.67;62.22
59194;BME280;44967;48.598;15.650;2023-03-26T06:15:03;97462.84;;;8.66;61.43
59194;BME280;44967;48.598;15.650;2023-03-26T06:17:29;97470.25;;;8.79;61.01
59194;BME280;44967;48.598;15.650;2023-03-26T06:19:55;97469.56;;;8.74;61.80
59194;BME280;44967;48.598;15.650;2023-03-26T06:22:21;97461.16;;;8.88;60.84
59194;BME280;44967;48.598;15.650;2023-03-26T06:24:47;97454.03;;;8.90;61.91
59194;BME280;44967;48.598;15.650;2023-03-26T06:27:12;97469.72;;;8.93;60.54
59194;BME280;44967;48.598;15.650;2023-03-26T06:29:38;97467.63;;;9.03;59.85
59194;BME280;44967;48.598;15.650;2023-03-26T06:32:04;97459.38;;;9.12;59.98
59194;BME280;44967;48.598;15.650;2023-03-26T06:34:30;97464.47;;;9.16;60.09
59194;BME280;44967;48.598;15.650;2023-03-26T06:36:55;97465.28;;;9.18;59.20
59194;BME280;44967;48.598;15.650;2023-03-26T06:39:21;97468.47;;;9.26;59.16
59194;BME280;44967;48.598;15.650;2023-03-26T06:41:47;97475.34;;;9.30;59.37
59194;BME280;44967;48.598;15.650;2023-03-26T06:44:13;97482.75;;;9.44;59.03
59194;BME280;44967;48.598;15.650;2023-03-26T06:46:39;97472.78;;;9.51;58.55
59194;BME280;44967;48.598;15.650;2023-03-26T06:49:04;97482.44;;;9.52;58.18
59194;BME280;44967;48.598;15.650;2023-03-26T06:51:30;97483.22;;;9.54;58.47
59194;BME280;44967;48.598;15.650;2023-03-26T06:53:56;97486.66;;;9.56;58.01
59194;BME280;44967;48.598;15.650;2023-03-26T06:56:21;97479.66;;;9.55;58.77
59194;BME280;44967;48.598;15.650;2023-03-26T06:58:47;97488.91;;;9.65;58.49
59194;BME280;44967;48.598;15.650;2023-03-26T07:01:13;97491.56;;;9.65;58.91
59194;BME280;44967;48.598;15.650;2023-03-26T07:03:41;97490.38;;;9.72;58.34
59194;BME280;44967;48.598;15.650;2023-03-26T07:06:07;97488.63;;;9.72;58.33
59194;BME280;44967;48.598;15.650;2023-03-26T07:08:32;97496.59;;;9.71;58.39
59194;BME280;44967;48.598;15.650;2023-03-26T07:10:59;97505.72;;;9.84;58.67
59194;BME280;44967;48.598;15.650;2023-03-26T07:13:24;97490.94;;;9.80;57.61
59194;BME280;44967;48.598;15.650;2023-03-26T07:15:50;97492.50;;;9.85;57.69
59194;BME280;44967;48.598;15.650;2023-03-26T07:18:17;97493.34;;;9.86;57.44
59194;BME280;44967;48.598;15.650;2023-03-26T07:20:44;97504.19;;;10.00;57.58
59194;BME280;44967;48.598;15.650;2023-03-26T07:23:11;97498.00;;;10.01;58.09
59194;BME280;44967;48.598;15.650;2023-03-26T07:25:38;97494.13;;;10.10;56.90
59194;BME280;44967;48.598;15.650;2023-03-26T07:31:12;97482.66;;;10.11;56.00
59194;BME280;44967;48.598;15.650;2023-03-26T07:41:42;97473.63;;;10.16;54.40
59194;BME280;44967;48.598;15.650;2023-03-26T07:44:30;97477.53;;;10.28;53.62
59194;BME280;44967;48.598;15.650;2023-03-26T07:47:11;97486.16;;;10.53;53.46
59194;BME280;44967;48.598;15.650;2023-03-26T07:49:42;97481.19;;;10.66;53.92
59194;BME280;44967;48.598;15.650;2023-03-26T07:52:09;97474.75;;;10.71;53.03
59194;BME280;44967;48.598;15.650;2023-03-26T07:54:35;97479.53;;;10.63;52.46
59194;BME280;44967;48.598;15.650;2023-03-26T07:57:05;97479.19;;;10.71;51.98
59194;BME280;44967;48.598;15.650;2023-03-26T08:00:03;97482.16;;;10.83;51.72
59194;BME280;44967;48.598;15.650;2023-03-26T08:02:48;97471.69;;;11.01;51.27
59194;BME280;44967;48.598;15.650;2023-03-26T08:05:28;97470.06;;;11.35;51.92
59194;BME280;44967;48.598;15.650;2023-03-26T08:16:06;97467.28;;;11.20;49.35
59194;BME280;44967;48.598;15.650;2023-03-26T08:18:39;97474.06;;;11.25;49.48
59194;BME280;44967;48.598;15.650;2023-03-26T08:21:11;97469.91;;;11.01;50.33
59194;BME280;44967;48.598;15.650;2023-03-26T08:26:58;97458.91;;;11.48;50.84
59194;BME280;44967;48.598;15.650;2023-03-26T08:29:46;97459.66;;;11.50;50.07
59194;BME280;44967;48.598;15.650;2023-03-26T08:32:16;97457.34;;;11.44;49.52
59194;BME280;44967;48.598;15.650;2023-03-26T08:34:43;97454.03;;;11.39;49.46
59194;BME280;44967;48.598;15.650;2023-03-26T08:37:09;97447.88;;;11.57;49.56
59194;BME280;44967;48.598;15.650;2023-03-26T08:39:35;97451.03;;;11.84;49.31
59194;BME280;44967;48.598;15.650;2023-03-26T08:59:18;97418.41;;;12.52;46.91
59194;BME280;44967;48.598;15.650;2023-03-26T09:10:04;97399.59;;;12.56;45.22
59194;BME280;44967;48.598;15.650;2023-03-26T09:13:13;97400.22;;;12.61;44.52
59194;BME280;44967;48.598;15.650;2023-03-26T09:16:09;97387.84;;;12.77;43.24
59194;BME280;44967;48.598;15.650;2023-03-26T09:27:07;97399.88;;;13.00;43.64
59194;BME280;44967;48.598;15.650;2023-03-26T09:35:05;97397.28;;;12.83;44.08
59194;BME280;44967;48.598;15.650;2023-03-26T09:40:20;97376.84;;;12.85;44.57
59194;BME280;44967;48.598;15.650;2023-03-26T09:46:23;97365.13;;;13.05;43.96
59194;BME280;44967;48.598;15.650;2023-03-26T09:54:56;97347.19;;;13.57;42.39
59194;BME280;44967;48.598;15.650;2023-03-26T10:05:58;97319.56;;;14.05;41.60
59194;BME280;44967;48.598;15.650;2023-03-26T10:08:52;97309.56;;;13.94;43.13
59194;BME280;44967;48.598;15.650;2023-03-26T10:11:45;97305.94;;;13.95;42.43
59194;BME280;44967;48.598;15.650;2023-03-26T10:14:23;97301.94;;;13.88;41.42
59194;BME280;44967;48.598;15.650;2023-03-26T10:25:58;97280.91;;;13.99;40.88
59194;BME280;44967;48.598;15.650;2023-03-26T10:45:04;97259.13;;;14.08;39.11
59194;BME280;44967;48.598;15.650;2023-03-26T10:50:39;97245.44;;;14.00;39.90
59194;BME280;44967;48.598;15.650;2023-03-26T10:58:39;97221.22;;;13.77;40.74
59194;BME280;44967;48.598;15.650;2023-03-26T11:03:54;97211.09;;;14.11;41.28
59194;BME280;44967;48.598;15.650;2023-03-26T11:06:53;97216.41;;;14.11;40.10
59194;BME280;44967;48.598;15.650;2023-03-26T11:09:51;97202.28;;;13.97;39.53
59194;BME280;44967;48.598;15.650;2023-03-26T11:12:21;97199.44;;;14.56;41.04
59194;BME280;44967;48.598;15.650;2023-03-26T11:22:49;97192.06;;;14.74;39.50
59194;BME280;44967;48.598;15.650;2023-03-26T11:28:32;97169.59;;;14.66;38.58
59194;BME280;44967;48.598;15.650;2023-03-26T11:34:16;97163.47;;;14.08;39.12
59194;BME280;44967;48.598;15.650;2023-03-26T11:36:48;97159.47;;;14.44;40.67
59194;BME280;44967;48.598;15.650;2023-03-26T11:39:27;97151.06;;;14.64;39.24
59194;BME280;44967;48.598;15.650;2023-03-26T11:42:05;97148.00;;;14.70;38.69
59194;BME280;44967;48.598;15.650;2023-03-26T11:44:41;97136.47;;;14.57;39.05
59194;BME280;44967;48.598;15.650;2023-03-26T11:47:09;97136.13;;;14.49;38.79
59194;BME280;44967;48.598;15.650;2023-03-26T11:49:37;97136.34;;;14.58;38.88
59194;BME280;44967;48.598;15.650;2023-03-26T11:52:03;97126.38;;;14.62;38.90
59194;BME280;44967;48.598;15.650;2023-03-26T11:54:29;97135.84;;;14.66;39.83
59194;BME280;44967;48.598;15.650;2023-03-26T11:57:19;97126.06;;;14.67;38.15
59194;BME280;44967;48.598;15.650;2023-03-26T11:59:59;97130.66;;;14.65;38.58
59194;BME280;44967;48.598;15.650;2023-03-26T12:02:30;97129.50;;;14.42;38.48
59194;BME280;44967;48.598;15.650;2023-03-26T12:07:54;97142.25;;;13.94;39.34
59194;BME280;44967;48.598;15.650;2023-03-26T12:10:32;97132.63;;;13.63;39.92
59194;BME280;44967;48.598;15.650;2023-03-26T12:13:02;97124.03;;;13.74;40.20
59194;BME280;44967;48.598;15.650;2023-03-26T12:15:30;97121.00;;;13.66;39.58
59194;BME280;44967;48.598;15.650;2023-03-26T12:17:58;97122.50;;;13.56;40.58
59194;BME280;44967;48.598;15.650;2023-03-26T12:23:01;97115.84;;;13.49;40.99
59194;BME280;44967;48.598;15.650;2023-03-26T12:25:34;97103.91;;;13.56;40.49
59194;BME280;44967;48.598;15.650;2023-03-26T12:30:39;97101.16;;;13.72;40.79
59194;BME280;44967;48.598;15.650;2023-03-26T12:33:14;97102.50;;;13.79;40.63
59194;BME280;44967;48.598;15.650;2023-03-26T12:35:41;97108.28;;;13.85;42.95
59194;BME280;44967;48.598;15.650;2023-03-26T12:40:48;97106.75;;;13.67;40.14
59194;BME280;44967;48.598;15.650;2023-03-26T12:43:35;97105.03;;;13.52;41.05
59194;BME280;44967;48.598;15.650;2023-03-26T12:46:08;97096.44;;;13.62;42.08
59194;BME280;44967;48.598;15.650;2023-03-26T12:48:45;97107.41;;;13.56;42.91
59194;BME280;44967;48.598;15.650;2023-03-26T12:54:34;97099.16;;;13.33;41.88
59194;BME280;44967;48.598;15.650;2023-03-26T12:57:21;97095.91;;;13.28;41.96
59194;BME280;44967;48.598;15.650;2023-03-26T13:05:03;97072.63;;;13.33;41.96
59194;BME280;44967;48.598;15.650;2023-03-26T13:10:47;97071.09;;;13.14;42.46
59194;BME280;44967;48.598;15.650;2023-03-26T13:18:53;97078.28;;;13.12;43.30
59194;BME280;44967;48.598;15.650;2023-03-26T13:21:36;97072.72;;;12.87;43.56
59194;BME280;44967;48.598;15.650;2023-03-26T13:27:10;97064.34;;;12.79;44.89
59194;BME280;44967;48.598;15.650;2023-03-26T13:35:27;97042.41;;;12.91;45.47
59194;BME280;44967;48.598;15.650;2023-03-26T13:41:00;97024.13;;;12.57;47.05
59194;BME280;44967;48.598;15.650;2023-03-26T13:46:26;97016.38;;;12.84;48.54
59194;BME280;44967;48.598;15.650;2023-03-26T13:49:02;97008.75;;;12.63;47.33
59194;BME280;44967;48.598;15.650;2023-03-26T13:51:34;97022.91;;;12.33;47.25
59194;BME280;44967;48.598;15.650;2023-03-26T13:56:44;97002.84;;;12.28;48.72
59194;BME280;44967;48.598;15.650;2023-03-26T13:59:15;96996.81;;;12.41;48.30
59194;BME280;44967;48.598;15.650;2023-03-26T14:01:52;96988.38;;;12.34;48.01
59194;BME280;44967;48.598;15.650;2023-03-26T14:04:29;96987.75;;;12.45;47.74
59194;BME280;44967;48.598;15.650;2023-03-26T14:10:07;96976.44;;;12.57;48.51
59194;BME280;44967;48.598;15.650;2023-03-26T14:13:01;96968.66;;;12.54;47.53
59194;BME280;44967;48.598;15.650;2023-03-26T14:15:35;96964.63;;;12.62;47.90
59194;BME280;44967;48.598;15.650;2023-03-26T14:24:08;96960.91;;;12.51;47.88
59194;BME280;44967;48.598;15.650;2023-03-26T14:35:35;96956.16;;;12.42;48.25
59194;BME280;44967;48.598;15.650;2023-03-26T14:41:37;96943.34;;;12.34;48.99
59194;BME280;44967;48.598;15.650;2023-03-26T14:47:19;96924.41;;;12.26;48.40
59194;BME280;44967;48.598;15.650;2023-03-26T14:55:12;96911.47;;;12.36;47.83
59194;BME280;44967;48.598;15.650;2023-03-26T15:09:30;96911.69;;;12.47;48.89
59194;BME280;44967;48.598;15.650;2023-03-26T15:11:50;96916.50;;;12.40;49.34
59194;BME280;44967;48.598;15.650;2023-03-26T15:28:59;96915.16;;;12.33;51.60
59194;BME280;44967;48.598;15.650;2023-03-26T15:43:17;96902.94;;;12.16;53.57
59194;BME280;44967;48.598;15.650;2023-03-26T15:48:50;96897.22;;;12.08;52.24
59194;BME280;44967;48.598;15.650;2023-03-26T15:51:27;96891.38;;;12.17;49.47
59194;BME280;44967;48.598;15.650;2023-03-26T16:02:15;96865.66;;;12.19;49.57
59194;BME280;44967;48.598;15.650;2023-03-26T16:05:18;96886.47;;;12.25;50.70
59194;BME280;44967;48.598;15.650;2023-03-26T16:08:11;96875.06;;;12.09;49.90
59194;BME280;44967;48.598;15.650;2023-03-26T16:18:40;96872.38;;;11.81;51.50
59194;BME280;44967;48.598;15.650;2023-03-26T16:29:18;96890.72;;;11.68;52.09
59194;BME280;44967;48.598;15.650;2023-03-26T16:34:56;96886.56;;;11.49;52.87
59194;BME280;44967;48.598;15.650;2023-03-26T16:48:01;96896.78;;;11.23;54.14
59194;BME280;44967;48.598;15.650;2023-03-26T16:50:48;96903.84;;;11.07;54.08
59194;BME280;44967;48.598;15.650;2023-03-26T16:53:35;96909.81;;;11.11;54.53
59194;BME280;44967;48.598;15.650;2023-03-26T16:59:07;96905.72;;;10.90;55.72
59194;BME280;44967;48.598;15.650;2023-03-26T17:01:48;96885.88;;;10.98;55.02
59194;BME280;44967;48.598;15.650;2023-03-26T17:04:19;96894.38;;;11.03;55.02
59194;BME280;44967;48.598;15.650;2023-03-26T17:06:59;96895.03;;;10.91;54.90
59194;BME280;44967;48.598;15.650;2023-03-26T17:20:34;96900.72;;;10.68;56.50
59194;BME280;44967;48.598;15.650;2023-03-26T17:23:23;96896.91;;;10.73;55.78
59194;BME280;44967;48.598;15.650;2023-03-26T17:26:20;96895.66;;;10.63;56.08
59194;BME280;44967;48.598;15.650;2023-03-26T17:32:10;96901.63;;;10.67;56.49
59194;BME280;44967;48.598;15.650;2023-03-26T17:34:59;96905.09;;;10.52;56.81
59194;BME280;44967;48.598;15.650;2023-03-26T17:37:39;96894.97;;;10.60;56.55
59194;BME280;44967;48.598;15.650;2023-03-26T17:40:42;96899.75;;;10.53;56.72
59194;BME280;44967;48.598;15.650;2023-03-26T17:43:47;96901.69;;;10.50;57.21
59194;BME280;44967;48.598;15.650;2023-03-26T17:46:36;96897.22;;;10.34;57.51
59194;BME280;44967;48.598;15.650;2023-03-26T17:49:16;96901.88;;;10.29;57.95
59194;BME280;44967;48.598;15.650;2023-03-26T17:54:34;96898.44;;;10.10;58.62
59194;BME280;44967;48.598;15.650;2023-03-26T17:57:31;96903.78;;;10.09;58.66
59194;BME280;44967;48.598;15.650;2023-03-26T18:00:05;96897.88;;;10.04;58.84
59194;BME280;44967;48.598;15.650;2023-03-26T18:02:39;96899.91;;;9.99;59.33
59194;BME280;44967;48.598;15.650;2023-03-26T18:05:10;96897.78;;;9.88;59.48
59194;BME280;44967;48.598;15.650;2023-03-26T18:10:54;96889.41;;;9.80;59.85
59194;BME280;44967;48.598;15.650;2023-03-26T18:19:03;96872.94;;;9.58;61.03
59194;BME280;44967;48.598;15.650;2023-03-26T18:21:43;96868.47;;;9.60;60.41
59194;BME280;44967;48.598;15.650;2023-03-26T18:24:20;96874.56;;;9.60;60.25
59194;BME280;44967;48.598;15.650;2023-03-26T18:27:02;96873.88;;;9.57;60.98
59194;BME280;44967;48.598;15.650;2023-03-26T18:29:33;96872.94;;;9.58;60.79
59194;BME280;44967;48.598;15.650;2023-03-26T18:34:33;96878.97;;;9.42;60.70
59194;BME280;44967;48.598;15.650;2023-03-26T18:37:12;96887.97;;;9.38;61.25
59194;BME280;44967;48.598;15.650;2023-03-26T18:39:40;96866.31;;;9.32;61.40
59194;BME280;44967;48.598;15.650;2023-03-26T18:42:17;96869.41;;;9.23;61.71
59194;BME280;44967;48.598;15.650;2023-03-26T18:44:50;96881.72;;;9.22;62.13
59194;BME280;44967;48.598;15.650;2023-03-26T18:47:19;96878.44;;;9.17;61.81
59194;BME280;44967;48.598;15.650;2023-03-26T18:49:48;96877.38;;;9.21;61.90